Time;durP1;ratioP1;P1;durP2;ratioP2;P2;SDS_P1;SDS_P2;PMS_P1;PMS_P2;Temp;Humidity;BMP_temperature;BMP_pressure;BME280_temperature;BME280_humidity;BME280_pressure;Samples;Min_cycle;Max_cycle;Signal;HPM_P1;HPM_P2
2022/03/10 00:00:15;;;;;;;15.67;9.40;;;;;;;3.40;100.00;99854.13;5148221;27;20197;-79
2022/03/10 00:02:44;;;;;;;16.40;10.40;;;;;;;3.37;100.00;99854.16;5087776;28;20215;-79
2022/03/10 00:05:15;;;;;;;15.87;9.60;;;;;;;3.28;100.00;99857.00;5088382;28;20205;-80
2022/03/10 00:07:44;;;;;;;18.10;10.30;;;;;;;3.10;100.00;99860.94;5085353;28;20200;-79
2022/03/10 00:10:12;;;;;;;17.57;10.10;;;;;;;3.27;100.00;99858.75;5085943;28;20204;-79
2022/03/10 00:12:49;;;;;;;15.77;9.57;;;;;;;3.18;100.00;99856.34;5090516;28;20265;-79
2022/03/10 00:15:21;;;;;;;18.33;10.93;;;;;;;3.21;100.00;99856.31;5083161;28;20669;-79
2022/03/10 00:17:50;;;;;;;14.70;9.63;;;;;;;3.24;100.00;99853.59;5092619;28;20252;-80
2022/03/10 00:20:21;;;;;;;14.50;9.60;;;;;;;3.26;100.00;99846.56;5088767;28;20188;-79
2022/03/10 00:22:53;;;;;;;14.47;9.13;;;;;;;3.22;100.00;99849.31;5027092;28;20215;-79
2022/03/10 00:25:22;;;;;;;15.60;9.57;;;;;;;3.33;100.00;99852.53;5060606;28;20234;-80
2022/03/10 00:27:51;;;;;;;14.23;8.60;;;;;;;3.22;100.00;99855.41;5137619;27;20192;-80
2022/03/10 00:30:22;;;;;;;14.10;8.70;;;;;;;3.06;100.00;99856.63;5013114;28;20197;-79
2022/03/10 00:32:53;;;;;;;10.87;8.10;;;;;;;3.16;100.00;99858.16;5011368;28;20198;-79
2022/03/10 00:35:23;;;;;;;16.67;8.33;;;;;;;3.11;100.00;99870.50;5006886;28;20195;-79
2022/03/10 00:37:58;;;;;;;12.57;8.23;;;;;;;3.12;100.00;99867.84;5011181;28;20221;-79
2022/03/10 00:40:30;;;;;;;13.53;8.57;;;;;;;2.87;100.00;99871.88;5012191;28;20194;-80
2022/03/10 00:43:01;;;;;;;16.90;10.37;;;;;;;2.87;100.00;99872.72;5012860;28;20301;-79
2022/03/10 00:45:32;;;;;;;17.57;9.30;;;;;;;2.94;100.00;99868.25;4928355;29;20244;-79
2022/03/10 00:48:00;;;;;;;17.37;9.93;;;;;;;2.84;100.00;99869.34;4957565;28;20191;-79
2022/03/10 00:50:29;;;;;;;13.73;9.00;;;;;;;2.70;100.00;99869.63;4950879;29;20204;-79
2022/03/10 00:53:01;;;;;;;16.13;9.30;;;;;;;2.85;100.00;99873.66;4951924;28;20192;-79
2022/03/10 00:55:29;;;;;;;15.70;8.47;;;;;;;2.87;100.00;99875.34;4937863;28;20194;-79
2022/03/10 00:58:02;;;;;;;13.47;8.77;;;;;;;2.95;100.00;99876.94;5010261;28;20190;-79
2022/03/10 01:00:33;;;;;;;16.97;8.67;;;;;;;2.92;100.00;99885.72;5004638;28;20790;-79
2022/03/10 01:03:03;;;;;;;16.50;8.80;;;;;;;3.02;100.00;99875.94;5005152;28;20252;-79
2022/03/10 01:05:32;;;;;;;12.93;8.20;;;;;;;2.71;100.00;99876.59;5007435;28;20261;-77
2022/03/10 01:08:01;;;;;;;12.37;8.30;;;;;;;2.78;100.00;99872.06;4951797;29;20207;-79
2022/03/10 01:10:30;;;;;;;12.43;8.13;;;;;;;2.67;100.00;99869.66;4963853;28;20191;-79
2022/03/10 01:13:02;;;;;;;13.07;8.07;;;;;;;2.70;100.00;99876.59;4989500;28;20226;-79
2022/03/10 01:15:34;;;;;;;13.67;8.30;;;;;;;2.74;100.00;99880.88;4998200;28;20202;-79
2022/03/10 01:18:04;;;;;;;14.93;9.20;;;;;;;2.49;100.00;99883.13;5012347;28;20194;-79
2022/03/10 01:20:34;;;;;;;14.80;7.83;;;;;;;2.36;100.00;99873.78;5011928;28;20187;-79
2022/03/10 01:23:03;;;;;;;14.50;8.03;;;;;;;2.08;100.00;99884.75;5008099;28;20219;-79
2022/03/10 01:25:32;;;;;;;14.60;8.30;;;;;;;2.10;100.00;99874.28;5029239;28;20203;-78
2022/03/10 01:28:01;;;;;;;13.77;7.93;;;;;;;1.96;100.00;99891.06;5056342;28;20251;-79
2022/03/10 01:30:34;;;;;;;15.93;8.07;;;;;;;2.07;100.00;99888.25;5090034;28;20257;-78
2022/03/10 01:33:03;;;;;;;15.73;8.60;;;;;;;2.08;100.00;99889.97;5094326;28;20260;-78
2022/03/10 01:35:34;;;;;;;13.60;8.90;;;;;;;1.92;100.00;99889.38;5089858;28;20225;-79
2022/03/10 01:38:02;;;;;;;13.97;9.30;;;;;;;1.91;100.00;99882.44;5088542;28;20183;-78
2022/03/10 01:40:31;;;;;;;14.17;8.90;;;;;;;1.97;100.00;99891.94;5087658;27;20196;-78
2022/03/10 01:43:00;;;;;;;19.57;9.60;;;;;;;1.81;100.00;99880.00;5148173;27;20218;-78
2022/03/10 01:45:29;;;;;;;16.17;9.50;;;;;;;1.90;100.00;99885.06;5151012;27;20239;-78
2022/03/10 01:48:01;;;;;;;18.20;9.63;;;;;;;1.95;100.00;99884.13;5147307;27;20249;-79
2022/03/10 01:50:33;;;;;;;14.83;9.50;;;;;;;1.88;100.00;99887.72;5104364;28;20274;-78
2022/03/10 01:53:02;;;;;;;15.73;9.70;;;;;;;1.85;100.00;99893.00;5031161;28;20193;-78
2022/03/10 01:55:34;;;;;;;17.43;9.73;;;;;;;1.87;100.00;99883.38;5029892;28;20198;-78
2022/03/10 01:58:06;;;;;;;16.10;10.47;;;;;;;1.89;100.00;99892.06;5013694;28;20247;-79
2022/03/10 02:00:35;;;;;;;16.90;10.13;;;;;;;2.01;100.00;99888.34;4994777;28;20204;-78
2022/03/10 02:03:07;;;;;;;16.00;9.67;;;;;;;2.07;100.00;99885.66;5028139;28;20233;-78
2022/03/10 02:05:36;;;;;;;19.20;10.10;;;;;;;2.14;100.00;99891.63;5029878;28;20194;-79
2022/03/10 02:10:51;;;;;;;16.53;10.47;;;;;;;2.09;100.00;99896.06;5032924;28;20196;-79
2022/03/10 02:13:21;;;;;;;15.77;9.77;;;;;;;2.04;100.00;99897.91;5063104;28;20219;-79
2022/03/10 02:18:42;;;;;;;16.23;9.90;;;;;;;2.15;100.00;99891.59;5070981;28;20648;-80
2022/03/10 02:21:11;;;;;;;16.00;9.03;;;;;;;2.20;100.00;99886.28;5067620;28;20196;-79
2022/03/10 02:23:43;;;;;;;16.87;9.47;;;;;;;2.17;100.00;99897.66;5088191;27;20205;-78
2022/03/10 02:26:13;;;;;;;16.30;9.57;;;;;;;2.12;100.00;99896.84;5146443;27;20197;-78
2022/03/10 02:28:43;;;;;;;13.00;8.73;;;;;;;2.13;100.00;99897.75;5155243;27;20261;-78
2022/03/10 02:31:12;;;;;;;14.17;9.07;;;;;;;2.13;100.00;99889.91;5091351;28;20196;-78
2022/03/10 02:33:43;;;;;;;15.73;9.13;;;;;;;2.33;100.00;99885.19;5088555;28;20191;-79
2022/03/10 02:36:12;;;;;;;16.40;8.93;;;;;;;2.28;100.00;99887.88;5085501;28;20194;-78
2022/03/10 02:38:44;;;;;;;14.10;8.70;;;;;;;2.23;100.00;99886.25;5083532;28;20192;-78
2022/03/10 02:41:13;;;;;;;13.97;8.87;;;;;;;2.14;100.00;99887.28;5013406;28;20216;-79
2022/03/10 02:43:42;;;;;;;14.77;8.50;;;;;;;2.16;100.00;99888.09;5050480;28;20213;-78
2022/03/10 02:46:13;;;;;;;13.33;8.50;;;;;;;2.18;100.00;99882.84;5045800;28;20193;-78
2022/03/10 02:48:44;;;;;;;12.90;7.93;;;;;;;2.19;100.00;99880.19;5053617;28;20201;-78
2022/03/10 02:51:12;;;;;;;12.00;7.70;;;;;;;2.19;100.00;99882.81;4993980;28;20197;-78
2022/03/10 02:53:44;;;;;;;15.30;7.90;;;;;;;2.19;100.00;99887.16;4991802;28;20206;-79
2022/03/10 02:56:12;;;;;;;13.43;8.40;;;;;;;2.14;100.00;99887.28;5000529;28;20196;-78
2022/03/10 02:58:41;;;;;;;14.30;8.23;;;;;;;2.13;100.00;99890.78;5032285;28;20272;-78
2022/03/10 03:01:10;;;;;;;14.60;9.40;;;;;;;2.24;100.00;99891.44;5033370;28;20200;-78
2022/03/10 03:03:41;;;;;;;19.10;8.83;;;;;;;2.06;100.00;99891.75;4992287;28;20329;-78
2022/03/10 03:06:10;;;;;;;14.30;8.43;;;;;;;1.88;100.00;99897.31;5029102;28;20445;-78
2022/03/10 03:08:44;;;;;;;17.23;9.13;;;;;;;1.82;100.00;99892.16;5049904;28;20196;-79
2022/03/10 03:11:14;;;;;;;13.73;8.73;;;;;;;2.00;100.00;99897.94;5053023;28;20283;-79
2022/03/10 03:13:45;;;;;;;15.23;9.00;;;;;;;1.76;100.00;99889.69;5058085;28;20197;-78
2022/03/10 03:16:14;;;;;;;13.57;8.83;;;;;;;1.56;100.00;99901.31;5048340;28;20201;-78
2022/03/10 03:18:46;;;;;;;14.20;7.90;;;;;;;1.56;100.00;99898.69;5049339;28;20288;-78
2022/03/10 03:21:17;;;;;;;14.40;8.07;;;;;;;1.57;100.00;99902.16;5060002;27;20184;-78
2022/03/10 03:23:51;;;;;;;12.47;7.43;;;;;;;1.64;100.00;99904.66;5155653;27;20277;-78
2022/03/10 03:26:21;;;;;;;13.50;7.90;;;;;;;1.62;100.00;99903.81;5153008;27;20190;-79
2022/03/10 03:28:50;;;;;;;12.20;7.40;;;;;;;1.44;100.00;99909.31;5149255;27;20197;-79
2022/03/10 03:31:20;;;;;;;12.67;7.53;;;;;;;1.55;100.00;99906.56;5147527;27;20228;-78
2022/03/10 03:33:53;;;;;;;11.03;7.60;;;;;;;1.60;100.00;99900.34;5105057;28;20274;-78
2022/03/10 03:36:22;;;;;;;13.20;8.00;;;;;;;1.56;100.00;99900.44;5081623;28;20195;-78
2022/03/10 03:38:52;;;;;;;11.93;7.23;;;;;;;1.67;100.00;99903.75;5114608;28;20201;-79
2022/03/10 03:41:23;;;;;;;12.57;7.60;;;;;;;1.46;100.00;99896.25;5109581;28;20202;-78
2022/03/10 03:43:52;;;;;;;11.47;7.23;;;;;;;1.55;100.00;99899.59;5111373;28;20226;-78
2022/03/10 03:46:21;;;;;;;12.57;6.80;;;;;;;1.71;100.00;99906.28;5110550;28;20194;-78
2022/03/10 03:48:50;;;;;;;10.83;7.50;;;;;;;1.52;100.00;99909.19;5107538;28;20256;-79
2022/03/10 03:51:18;;;;;;;11.53;7.00;;;;;;;1.53;100.00;99903.09;5107817;28;20203;-78
2022/03/10 03:53:47;;;;;;;11.50;7.73;;;;;;;1.59;100.00;99908.22;5108352;28;20195;-78
2022/03/10 03:56:17;;;;;;;12.00;7.43;;;;;;;1.49;100.00;99906.63;5110583;28;20183;-79
2022/03/10 03:58:46;;;;;;;11.40;7.17;;;;;;;1.35;100.00;99906.81;5113190;28;20195;-79
2022/03/10 04:01:15;;;;;;;11.07;7.17;;;;;;;1.35;100.00;99912.03;5111009;28;20393;-78
2022/03/10 04:03:50;;;;;;;10.90;7.43;;;;;;;1.30;100.00;99906.91;5109749;28;20215;-78
2022/03/10 04:06:21;;;;;;;11.23;7.33;;;;;;;1.38;100.00;99907.66;5048130;28;20722;-79
2022/03/10 04:08:49;;;;;;;12.27;7.53;;;;;;;1.38;100.00;99904.19;5047121;28;20201;-78
2022/03/10 04:11:20;;;;;;;10.13;7.13;;;;;;;1.37;100.00;99900.72;4997092;28;20308;-79
2022/03/10 04:13:48;;;;;;;12.53;7.23;;;;;;;1.15;100.00;99907.09;5048040;28;20201;-78
2022/03/10 04:16:18;;;;;;;12.60;7.87;;;;;;;1.20;100.00;99909.66;5047153;28;20201;-78
2022/03/10 04:18:49;;;;;;;12.10;7.70;;;;;;;1.24;100.00;99906.13;5048862;28;20671;-79
2022/03/10 04:21:18;;;;;;;12.07;7.37;;;;;;;1.07;100.00;99903.78;5045359;28;20280;-79
2022/03/10 04:23:47;;;;;;;12.27;7.30;;;;;;;1.09;100.00;99904.59;5044165;28;20324;-78
2022/03/10 04:26:20;;;;;;;14.13;7.53;;;;;;;1.10;100.00;99904.59;5047831;28;20276;-79
2022/03/10 04:28:49;;;;;;;12.10;6.80;;;;;;;1.07;100.00;99909.84;5043846;28;20197;-79
2022/03/10 04:31:17;;;;;;;10.77;7.40;;;;;;;0.83;100.00;99910.16;5046577;28;20193;-79
2022/03/10 04:33:45;;;;;;;11.27;7.03;;;;;;;0.97;100.00;99900.44;4965529;28;20199;-79
2022/03/10 04:36:14;;;;;;;12.30;7.73;;;;;;;0.84;100.00;99896.22;4971415;28;20198;-79
2022/03/10 04:38:44;;;;;;;12.17;7.07;;;;;;;0.95;100.00;99899.56;5043455;28;20185;-79
2022/03/10 04:41:19;;;;;;;11.00;6.80;;;;;;;0.84;100.00;99902.31;5032899;28;20194;-78
2022/03/10 04:43:51;;;;;;;13.23;7.13;;;;;;;0.84;100.00;99899.69;5029484;28;20220;-79
2022/03/10 04:46:20;;;;;;;10.60;6.73;;;;;;;0.80;100.00;99894.56;5021427;28;20222;-78
2022/03/10 04:48:51;;;;;;;11.07;7.33;;;;;;;0.77;100.00;99889.34;5028010;28;20240;-79
2022/03/10 04:51:22;;;;;;;11.40;6.80;;;;;;;0.89;100.00;99890.97;5038492;28;20203;-78
2022/03/10 04:53:53;;;;;;;11.47;7.13;;;;;;;0.91;100.00;99887.44;5065746;28;20275;-78
2022/03/10 04:56:21;;;;;;;11.87;7.00;;;;;;;0.75;100.00;99889.38;5036259;28;20196;-78
2022/03/10 04:58:53;;;;;;;11.53;7.03;;;;;;;0.96;100.00;99896.06;5063587;28;20196;-79
2022/03/10 05:01:21;;;;;;;12.23;7.13;;;;;;;0.85;100.00;99900.56;5068345;28;20188;-78
2022/03/10 05:03:50;;;;;;;12.40;6.73;;;;;;;0.95;100.00;99894.34;5064851;28;20770;-78
2022/03/10 05:06:28;;;;;;;12.67;7.23;;;;;;;0.88;100.00;99904.91;5102327;28;20190;-78
2022/03/10 05:08:57;;;;;;;10.13;7.07;;;;;;;0.47;100.00;99908.84;5095827;28;20202;-78
2022/03/10 05:11:30;;;;;;;11.40;7.03;;;;;;;0.36;100.00;99914.16;5114370;28;20195;-79
2022/03/10 05:14:03;;;;;;;13.27;7.60;;;;;;;0.21;100.00;99912.59;5114332;28;20219;-79
2022/03/10 05:16:34;;;;;;;12.13;7.83;;;;;;;0.25;100.00;99921.22;5112078;28;20277;-79
2022/03/10 05:19:03;;;;;;;12.00;6.83;;;;;;;0.15;100.00;99930.00;5109079;28;20191;-78
2022/03/10 05:21:32;;;;;;;13.80;8.47;;;;;;;0.19;100.00;99934.31;5114601;28;20256;-78
2022/03/10 05:24:02;;;;;;;11.30;7.60;;;;;;;0.23;100.00;99934.28;5107394;28;20215;-78
2022/03/10 05:26:32;;;;;;;13.20;8.10;;;;;;;0.18;100.00;99932.56;5109877;28;20195;-78
2022/03/10 05:29:07;;;;;;;14.13;8.33;;;;;;;0.23;100.00;99930.81;5107879;28;20202;-78
2022/03/10 05:31:40;;;;;;;15.50;8.67;;;;;;;0.25;100.00;99937.72;5109209;28;20205;-78
2022/03/10 05:34:09;;;;;;;13.83;7.90;;;;;;;0.05;100.00;99933.56;5110183;28;20191;-78
2022/03/10 05:36:41;;;;;;;13.80;7.67;;;;;;;0.14;100.00;99936.09;5113287;28;20229;-79
2022/03/10 05:39:09;;;;;;;15.53;7.50;;;;;;;-0.08;100.00;99938.91;5114344;28;20195;-78
2022/03/10 05:41:41;;;;;;;11.87;7.20;;;;;;;-0.08;100.00;99936.31;5051056;28;20227;-78
2022/03/10 05:44:14;;;;;;;12.13;7.80;;;;;;;-0.10;100.00;99942.38;5010569;28;20229;-78
2022/03/10 05:46:43;;;;;;;14.23;7.87;;;;;;;-0.09;100.00;99934.56;5011355;28;20198;-78
2022/03/10 05:49:12;;;;;;;13.97;8.10;;;;;;;-0.06;100.00;99928.47;4915118;29;20206;-78
2022/03/10 05:51:42;;;;;;;11.67;7.50;;;;;;;-0.04;100.00;99939.72;4915213;29;20705;-79
2022/03/10 05:54:12;;;;;;;12.97;7.13;;;;;;;0.13;100.00;99948.25;4897098;29;20201;-78
2022/03/10 05:56:42;;;;;;;12.40;8.07;;;;;;;0.26;100.00;99941.19;4912124;29;20233;-79
2022/03/10 05:59:14;;;;;;;12.83;7.60;;;;;;;0.42;100.00;99947.13;4907568;29;20249;-79
2022/03/10 06:01:44;;;;;;;11.47;7.10;;;;;;;0.39;100.00;99952.38;4924880;28;20211;-78
2022/03/10 06:04:13;;;;;;;12.17;7.77;;;;;;;0.53;100.00;99948.72;4959237;28;20221;-79
2022/03/10 06:06:43;;;;;;;13.53;8.13;;;;;;;0.44;100.00;99950.56;4991603;28;20246;-78
2022/03/10 06:09:13;;;;;;;12.93;8.43;;;;;;;0.41;100.00;99961.03;5064578;28;20211;-78
2022/03/10 06:11:43;;;;;;;15.30;8.63;;;;;;;0.35;100.00;99958.47;5061121;28;20355;-78
2022/03/10 06:14:19;;;;;;;12.00;8.40;;;;;;;0.41;100.00;99961.88;5053536;28;20218;-78
2022/03/10 06:16:51;;;;;;;13.53;8.23;;;;;;;0.44;100.00;99967.06;5095272;28;20225;-78
2022/03/10 06:19:19;;;;;;;13.67;8.23;;;;;;;0.35;100.00;99968.91;5108677;28;20224;-78
2022/03/10 06:21:51;;;;;;;14.73;8.30;;;;;;;0.15;100.00;99971.69;5113441;28;20259;-78
2022/03/10 06:24:20;;;;;;;13.00;8.73;;;;;;;0.22;100.00;99974.22;5111020;28;20214;-78
2022/03/10 06:26:48;;;;;;;12.70;8.73;;;;;;;0.24;100.00;99977.69;5109548;28;20232;-78
2022/03/10 06:29:23;;;;;;;14.10;8.80;;;;;;;0.12;100.00;99988.22;5104894;28;20194;-78
2022/03/10 06:31:54;;;;;;;14.60;9.37;;;;;;;0.12;100.00;99989.97;5113198;28;20273;-78
2022/03/10 06:34:23;;;;;;;15.03;9.53;;;;;;;0.17;100.00;99995.97;5094794;28;20195;-79
2022/03/10 06:36:53;;;;;;;16.23;10.00;;;;;;;0.12;100.00;100002.97;5108762;28;20241;-78
2022/03/10 06:39:21;;;;;;;16.23;9.80;;;;;;;0.15;100.00;99997.72;5110711;28;20202;-78
2022/03/10 06:41:50;;;;;;;16.73;10.40;;;;;;;0.20;100.00;99999.44;5111039;28;20218;-79
2022/03/10 06:44:23;;;;;;;15.47;9.03;;;;;;;0.27;100.00;100000.22;5113140;27;20277;-78
2022/03/10 06:46:53;;;;;;;16.40;9.73;;;;;;;0.41;100.00;100000.13;5146966;27;20225;-79
2022/03/10 06:49:22;;;;;;;22.57;10.43;;;;;;;0.48;100.00;99997.44;5154488;27;20239;-79
2022/03/10 06:51:51;;;;;;;17.47;10.23;;;;;;;0.65;100.00;99997.25;5115764;27;20338;-78
2022/03/10 06:54:19;;;;;;;18.13;10.23;;;;;;;0.77;100.00;100001.47;5151831;27;20697;-78
2022/03/10 06:56:51;;;;;;;16.33;9.60;;;;;;;0.78;100.00;100005.84;5107497;28;20195;-78
2022/03/10 06:59:19;;;;;;;16.00;9.33;;;;;;;0.94;100.00;100011.72;5058116;28;20213;-78
2022/03/10 07:01:49;;;;;;;16.67;9.40;;;;;;;1.03;100.00;100004.66;5106317;28;20210;-78
2022/03/10 07:04:18;;;;;;;17.23;10.63;;;;;;;0.82;100.00;100016.19;5070004;28;20214;-78
2022/03/10 07:06:48;;;;;;;16.47;10.13;;;;;;;0.92;100.00;100014.34;5108669;28;20205;-78
2022/03/10 07:09:18;;;;;;;16.73;10.87;;;;;;;1.11;100.00;100001.97;5103347;28;20198;-78
2022/03/10 07:11:47;;;;;;;16.87;10.17;;;;;;;1.11;100.00;100007.19;5108932;28;20191;-78
2022/03/10 07:14:16;;;;;;;17.07;10.47;;;;;;;1.34;100.00;100017.31;5114524;27;20196;-78
2022/03/10 07:16:44;;;;;;;17.87;10.77;;;;;;;1.39;100.00;100011.16;5147423;27;20201;-78
2022/03/10 07:19:15;;;;;;;16.03;10.20;;;;;;;1.32;100.00;100019.09;5144610;27;20209;-78
2022/03/10 07:21:44;;;;;;;17.30;10.40;;;;;;;1.55;100.00;100018.81;5151427;27;20186;-78
2022/03/10 07:24:12;;;;;;;15.60;10.53;;;;;;;1.59;100.00;100017.88;5154362;27;20194;-78
2022/03/10 07:26:40;;;;;;;19.47;10.50;;;;;;;1.56;100.00;100024.00;5145030;27;20214;-78
2022/03/10 07:29:09;;;;;;;17.43;11.53;;;;;;;1.77;100.00;100021.97;5150942;27;20204;-78
2022/03/10 07:31:37;;;;;;;17.00;10.73;;;;;;;2.05;100.00;100015.44;5152080;27;20635;-78
2022/03/10 07:34:06;;;;;;;14.97;10.13;;;;;;;2.18;100.00;100010.88;5147690;27;20242;-78
2022/03/10 07:36:36;;;;;;;15.57;10.17;;;;;;;2.27;100.00;100019.44;5157884;27;20675;-78
2022/03/10 07:39:04;;;;;;;16.33;10.73;;;;;;;2.30;100.00;100008.91;5153638;27;20192;-78
2022/03/10 07:41:39;;;;;;;19.00;10.10;;;;;;;2.35;100.00;100021.06;5113392;28;20195;-78
2022/03/10 07:44:07;;;;;;;16.00;10.30;;;;;;;2.44;100.00;100018.31;5082118;28;20193;-78
2022/03/10 07:46:36;;;;;;;16.30;10.30;;;;;;;2.56;100.00;100015.47;5032701;28;20232;-78
2022/03/10 07:49:05;;;;;;;17.63;10.43;;;;;;;2.78;100.00;100019.41;5014143;28;20245;-78
2022/03/10 07:51:34;;;;;;;14.73;10.67;;;;;;;2.88;100.00;100020.97;5008728;28;20202;-78
2022/03/10 07:54:05;;;;;;;16.83;11.20;;;;;;;3.02;100.00;100020.72;5008202;28;20209;-78
2022/03/10 07:56:33;;;;;;;17.40;10.53;;;;;;;2.82;100.00;100023.72;5010518;28;20198;-78
2022/03/10 07:59:05;;;;;;;13.97;10.20;;;;;;;2.98;100.00;100021.66;5011833;28;20222;-79
2022/03/10 08:01:34;;;;;;;14.57;10.10;;;;;;;3.14;100.00;100023.09;5002322;28;20213;-78
2022/03/10 08:04:05;;;;;;;15.43;10.57;;;;;;;3.27;100.00;100020.22;5005368;28;20228;-78
2022/03/10 08:06:33;;;;;;;16.47;10.20;;;;;;;3.29;100.00;100016.69;4973060;28;20295;-78
2022/03/10 08:09:04;;;;;;;15.17;10.33;;;;;;;3.51;100.00;100016.22;5052785;28;20189;-78
2022/03/10 08:11:34;;;;;;;15.47;10.93;;;;;;;3.59;100.00;100016.94;5062266;28;20200;-78
2022/03/10 08:14:04;;;;;;;16.00;10.83;;;;;;;3.82;100.00;100021.66;5087522;28;20194;-79
2022/03/10 08:16:35;;;;;;;15.60;10.43;;;;;;;4.08;100.00;100014.06;5050115;28;20260;-79
2022/03/10 08:19:03;;;;;;;17.53;10.93;;;;;;;4.00;100.00;100010.75;5050705;28;20220;-79
2022/03/10 08:21:33;;;;;;;17.23;10.90;;;;;;;4.10;100.00;100008.78;5048497;28;20189;-79
2022/03/10 08:24:01;;;;;;;15.93;11.17;;;;;;;4.48;100.00;100008.69;5050723;28;20193;-78
2022/03/10 08:26:31;;;;;;;17.80;11.30;;;;;;;4.66;100.00;100001.25;5052929;28;20209;-79
2022/03/10 08:29:02;;;;;;;17.83;11.33;;;;;;;4.84;100.00;100009.50;5054788;28;20196;-79
2022/03/10 08:31:30;;;;;;;17.27;11.37;;;;;;;5.09;100.00;99995.66;5087132;28;20203;-78
2022/03/10 08:34:01;;;;;;;15.10;10.77;;;;;;;5.35;100.00;99995.78;5099049;27;20202;-79
2022/03/10 08:36:32;;;;;;;16.57;10.23;;;;;;;5.53;100.00;99994.41;5152442;27;20197;-79
2022/03/10 08:39:00;;;;;;;15.77;10.70;;;;;;;5.82;100.00;99990.88;5149092;27;20252;-79
2022/03/10 08:41:30;;;;;;;15.73;10.83;;;;;;;5.84;100.00;99994.31;5148932;27;20198;-79
2022/03/10 08:43:59;;;;;;;15.33;10.73;;;;;;;5.83;100.00;99994.38;5149513;27;20242;-79
2022/03/10 08:46:29;;;;;;;18.27;11.10;;;;;;;6.09;100.00;99988.31;5152405;27;20221;-79
2022/03/10 08:48:58;;;;;;;17.13;10.77;;;;;;;6.08;100.00;99987.47;5148385;27;20361;-79
2022/03/10 08:51:27;;;;;;;19.33;11.80;;;;;;;6.38;100.00;99982.09;5087549;28;20196;-79
2022/03/10 08:53:55;;;;;;;16.83;10.70;;;;;;;6.61;100.00;99987.41;5090503;28;20285;-79
2022/03/10 08:56:24;;;;;;;16.70;11.33;;;;;;;6.87;100.00;99983.88;5086621;28;20196;-79
2022/03/10 08:58:54;;;;;;;20.10;11.30;;;;;;;7.02;100.00;99990.38;5087541;28;20207;-79
2022/03/10 09:01:23;;;;;;;16.73;11.17;;;;;;;7.13;100.00;99983.78;5092278;28;20233;-80
2022/03/10 09:03:54;;;;;;;16.33;10.47;;;;;;;7.47;100.00;99980.75;5090439;28;20253;-79
2022/03/10 09:06:25;;;;;;;15.33;10.03;;;;;;;7.78;100.00;99981.34;5090553;28;20223;-79
2022/03/10 09:08:53;;;;;;;14.70;10.23;;;;;;;7.91;100.00;99983.47;5085385;28;20199;-79
2022/03/10 09:11:22;;;;;;;14.07;9.20;;;;;;;8.35;100.00;99982.59;5092632;28;20202;-79
2022/03/10 09:13:52;;;;;;;12.33;9.80;;;;;;;8.66;100.00;99976.88;5085727;28;20185;-79
2022/03/10 09:16:22;;;;;;;15.10;10.07;;;;;;;8.81;95.88;99971.78;5118359;27;20257;-79
2022/03/10 09:18:54;;;;;;;15.50;9.43;;;;;;;8.62;94.92;99985.84;5147580;27;20193;-79
2022/03/10 09:21:24;;;;;;;14.83;8.67;;;;;;;9.06;86.67;99979.47;5149427;27;20193;-79
2022/03/10 09:23:53;;;;;;;13.13;8.80;;;;;;;9.48;81.66;99977.63;5148838;27;20196;-79
2022/03/10 09:26:22;;;;;;;10.93;7.60;;;;;;;9.62;72.79;99978.66;5100788;27;20217;-79
2022/03/10 09:28:51;;;;;;;10.53;7.20;;;;;;;9.97;63.11;99977.00;5098041;27;20239;-79
2022/03/10 09:31:20;;;;;;;11.30;7.73;;;;;;;10.42;58.51;99980.13;5148123;27;20239;-79
2022/03/10 09:33:49;;;;;;;11.83;7.13;;;;;;;10.53;55.71;99976.03;5150047;27;20217;-79
2022/03/10 09:36:21;;;;;;;10.60;7.10;;;;;;;10.82;53.04;99974.53;5155538;27;20231;-79
2022/03/10 09:38:50;;;;;;;11.60;7.20;;;;;;;10.84;51.90;99969.16;5152830;27;20202;-79
2022/03/10 09:41:18;;;;;;;11.90;7.80;;;;;;;10.68;51.98;99977.03;5150534;27;20648;-79
2022/03/10 09:43:48;;;;;;;11.00;7.43;;;;;;;10.72;52.58;99965.34;5116985;27;20656;-78
2022/03/10 09:46:17;;;;;;;14.13;7.60;;;;;;;11.03;53.13;99974.34;5153898;27;20218;-78
2022/03/10 09:48:46;;;;;;;9.70;6.90;;;;;;;11.44;51.11;99959.72;5152246;27;20205;-79
2022/03/10 09:51:15;;;;;;;9.80;7.43;;;;;;;11.66;50.76;99962.03;5152349;27;20202;-79
2022/03/10 09:53:44;;;;;;;10.60;7.30;;;;;;;11.71;49.90;99967.09;5155126;27;20668;-78
2022/03/10 09:56:15;;;;;;;10.60;7.50;;;;;;;11.99;49.45;99961.13;5151007;27;20284;-80
2022/03/10 09:58:43;;;;;;;10.67;7.80;;;;;;;12.13;47.02;99950.56;5151079;27;20197;-79
2022/03/10 10:01:11;;;;;;;10.87;7.30;;;;;;;12.32;47.34;99947.69;5146112;27;20193;-79
2022/03/10 10:03:41;;;;;;;9.93;7.50;;;;;;;12.28;45.43;99947.03;5151079;27;20190;-79
2022/03/10 10:06:12;;;;;;;11.40;7.63;;;;;;;12.33;45.37;99942.28;5150465;27;20221;-79
2022/03/10 10:08:55;;;;;;;10.27;7.67;;;;;;;12.22;44.79;99947.38;5152528;27;20221;-79
2022/03/10 10:11:31;;;;;;;10.20;7.33;;;;;;;12.14;45.87;99938.13;5152095;27;20196;-79
2022/03/10 10:14:01;;;;;;;9.77;7.30;;;;;;;12.35;45.07;99928.03;5116306;27;20181;-79
2022/03/10 10:16:29;;;;;;;10.50;7.47;;;;;;;12.57;44.33;99933.81;5148181;27;20212;-80
2022/03/10 10:19:00;;;;;;;10.23;7.13;;;;;;;12.88;44.44;99927.50;5097975;27;20245;-79
2022/03/10 10:21:34;;;;;;;12.33;7.83;;;;;;;12.93;44.20;99932.53;5070342;27;20201;-79
2022/03/10 10:24:18;;;;;;;10.23;7.00;;;;;;;13.15;43.30;99927.63;5152247;27;20190;-79
2022/03/10 10:26:49;;;;;;;12.23;7.40;;;;;;;13.33;42.52;99929.16;5120278;27;20221;-79
2022/03/10 10:29:28;;;;;;;11.17;7.40;;;;;;;13.67;42.09;99927.00;5154327;27;20198;-80
2022/03/10 10:31:56;;;;;;;9.60;7.13;;;;;;;13.39;42.54;99928.75;5119944;27;20204;-80
2022/03/10 10:34:59;;;;;;;11.60;7.00;;;;;;;13.86;42.34;99924.84;5157653;27;20243;-79
2022/03/10 10:37:27;;;;;;;11.00;7.20;;;;;;;13.81;41.07;99931.44;5151864;27;20202;-80
2022/03/10 10:40:08;;;;;;;8.63;6.33;;;;;;;13.48;40.69;99929.13;5151317;27;20265;-80
2022/03/10 10:42:39;;;;;;;12.10;6.97;;;;;;;13.58;40.41;99931.09;5150637;27;20192;-79
2022/03/10 10:45:29;;;;;;;9.47;6.90;;;;;;;13.73;40.15;99927.47;5147621;27;20237;-80
2022/03/10 10:47:59;;;;;;;9.97;7.07;;;;;;;13.43;42.25;99924.09;5148925;27;20220;-79
2022/03/10 10:50:30;;;;;;;11.73;7.40;;;;;;;13.93;41.97;99928.81;5147855;27;20212;-79
2022/03/10 10:52:59;;;;;;;9.63;6.77;;;;;;;14.16;40.92;99919.31;5150315;27;20190;-79
2022/03/10 10:55:42;;;;;;;10.70;7.47;;;;;;;14.43;39.86;99921.09;5151281;27;20205;-79
2022/03/10 10:58:12;;;;;;;9.73;6.30;;;;;;;14.15;38.77;99914.09;5148212;27;20261;-80
2022/03/10 11:00:46;;;;;;;9.53;6.27;;;;;;;14.54;38.72;99911.44;5150463;27;20190;-80
2022/03/10 11:03:24;;;;;;;7.70;5.53;;;;;;;14.48;37.70;99921.69;5152601;27;20298;-80
2022/03/10 11:05:54;;;;;;;7.13;5.13;;;;;;;14.50;37.25;99912.59;5149214;27;20197;-80
2022/03/10 11:08:24;;;;;;;9.50;6.47;;;;;;;14.40;37.29;99905.31;5154594;27;20214;-79
2022/03/10 11:10:54;;;;;;;11.20;6.23;;;;;;;14.45;37.82;99909.38;5121988;27;20197;-80
2022/03/10 11:13:25;;;;;;;9.27;6.13;;;;;;;15.02;37.11;99902.81;5154630;27;20192;-80
2022/03/10 11:15:58;;;;;;;25.07;14.13;;;;;;;15.31;37.29;99904.25;5071877;28;20215;-80
2022/03/10 11:18:27;;;;;;;9.07;6.40;;;;;;;15.51;36.91;99904.63;5064651;28;20196;-80
2022/03/10 11:21:05;;;;;;;8.53;6.47;;;;;;;15.81;35.86;99893.56;5064560;28;20242;-79
2022/03/10 11:23:49;;;;;;;8.77;6.33;;;;;;;15.38;36.04;99892.19;5068940;28;20188;-80
2022/03/10 11:26:28;;;;;;;9.37;6.60;;;;;;;15.11;36.10;99897.66;5064906;28;20196;-79
2022/03/10 11:29:00;;;;;;;8.57;5.90;;;;;;;15.30;36.13;99891.03;5084161;28;20236;-80
2022/03/10 11:31:33;;;;;;;8.20;6.00;;;;;;;15.44;35.74;99885.53;5050151;28;20243;-80
2022/03/10 11:34:06;;;;;;;9.40;5.97;;;;;;;15.94;34.69;99884.53;5076136;28;20275;-79
2022/03/10 11:36:35;;;;;;;11.80;6.20;;;;;;;15.95;34.58;99885.38;5128589;27;20255;-80
2022/03/10 11:39:06;;;;;;;8.43;5.60;;;;;;;15.89;33.75;99885.84;5093729;27;20194;-79
2022/03/10 11:41:45;;;;;;;8.67;5.67;;;;;;;16.27;33.33;99873.13;5132080;27;20206;-80